createdAt,value
2022-11-27T00:00:08.363Z,22.80
2022-11-27T00:02:43.419Z,21.42
2022-11-27T00:05:14.174Z,22.25
2022-11-27T00:07:44.859Z,21.77
2022-11-27T00:10:15.705Z,22.70
2022-11-27T00:12:46.436Z,24.98
2022-11-27T00:15:19.553Z,25.00
2022-11-27T00:17:50.139Z,24.45
2022-11-27T00:20:20.798Z,26.13
2022-11-27T00:22:51.429Z,24.08
2022-11-27T00:25:22.093Z,24.70
2022-11-27T00:27:52.720Z,23.08
2022-11-27T00:30:25.901Z,24.20
2022-11-27T00:32:56.561Z,22.55
2022-11-27T00:35:27.000Z,32.85
2022-11-27T00:37:57.613Z,30.23
2022-11-27T00:40:28.151Z,26.95
2022-11-27T00:42:58.730Z,31.10
2022-11-27T00:45:32.320Z,32.63
2022-11-27T00:48:02.789Z,32.03
2022-11-27T00:50:33.374Z,34.97
2022-11-27T00:53:04.072Z,27.13
2022-11-27T00:55:34.858Z,30.48
2022-11-27T00:58:05.495Z,27.33
2022-11-27T01:00:38.541Z,31.13
2022-11-27T01:03:09.192Z,30.33
2022-11-27T01:05:40.125Z,28.15
2022-11-27T01:08:10.617Z,30.48
2022-11-27T01:10:41.152Z,28.85
2022-11-27T01:13:11.652Z,27.65
2022-11-27T01:15:47.777Z,26.60
2022-11-27T01:18:18.575Z,22.80
2022-11-27T01:20:49.046Z,22.85
2022-11-27T01:23:19.655Z,19.70
2022-11-27T01:25:50.333Z,24.13
2022-11-27T01:28:20.927Z,24.25
2022-11-27T01:30:54.558Z,25.98
2022-11-27T01:33:25.469Z,21.60
2022-11-27T01:36:00.581Z,24.73
2022-11-27T01:38:32.460Z,25.95
2022-11-27T01:41:04.454Z,25.45
2022-11-27T01:43:46.202Z,22.60
2022-11-27T01:46:31.344Z,27.60
2022-11-27T01:49:07.714Z,23.00
2022-11-27T01:51:39.723Z,27.52
2022-11-27T01:54:11.944Z,23.65
2022-11-27T01:56:45.019Z,20.27
2022-11-27T01:59:15.868Z,21.77
2022-11-27T02:01:49.001Z,19.55
2022-11-27T02:04:21.630Z,23.65
2022-11-27T02:06:52.355Z,23.25
2022-11-27T02:09:22.981Z,22.33
2022-11-27T02:11:59.865Z,22.45
2022-11-27T02:14:57.966Z,18.90
2022-11-27T02:17:38.272Z,19.45
2022-11-27T02:20:21.712Z,17.85
2022-11-27T02:23:13.357Z,19.55
2022-11-27T02:25:54.286Z,18.67
2022-11-27T02:28:36.432Z,18.17
2022-11-27T02:31:15.092Z,18.95
2022-11-27T02:33:50.424Z,23.27
2022-11-27T02:36:25.943Z,17.95
2022-11-27T02:41:32.289Z,17.33
2022-11-27T02:44:05.204Z,13.20
2022-11-27T02:46:38.739Z,20.80
2022-11-27T02:49:15.931Z,23.00
2022-11-27T02:51:51.233Z,22.95
2022-11-27T02:54:26.858Z,16.15
2022-11-27T02:56:59.307Z,18.17
2022-11-27T02:59:36.011Z,17.38
2022-11-27T03:02:13.145Z,20.15
2022-11-27T03:04:49.450Z,18.17
2022-11-27T03:07:28.913Z,17.35
2022-11-27T03:10:03.828Z,21.08
2022-11-27T03:12:34.281Z,17.83
2022-11-27T03:15:04.818Z,20.10
2022-11-27T03:17:52.046Z,18.17
2022-11-27T03:20:27.047Z,17.67
2022-11-27T03:22:58.340Z,18.70
2022-11-27T03:25:28.980Z,19.83
2022-11-27T03:28:03.006Z,15.85
2022-11-27T03:30:33.803Z,17.83
2022-11-27T03:33:07.069Z,15.55
2022-11-27T03:35:37.585Z,15.05
2022-11-27T03:38:08.393Z,13.73
2022-11-27T03:40:48.220Z,15.10
2022-11-27T03:43:26.185Z,14.35
2022-11-27T03:46:03.286Z,15.25
2022-11-27T03:48:41.389Z,19.20
2022-11-27T03:51:21.036Z,23.95
2022-11-27T03:54:00.307Z,20.58
2022-11-27T03:56:37.119Z,21.67
2022-11-27T03:59:13.519Z,24.63
2022-11-27T04:01:44.313Z,19.95
2022-11-27T04:04:17.776Z,18.23
2022-11-27T04:06:48.506Z,20.23
2022-11-27T04:09:19.027Z,18.15
2022-11-27T04:11:49.561Z,17.17
2022-11-27T04:14:20.155Z,21.30
2022-11-27T04:16:50.654Z,16.80
2022-11-27T04:19:23.843Z,17.65
2022-11-27T04:21:54.329Z,16.35
2022-11-27T04:24:24.964Z,17.13
2022-11-27T04:26:55.460Z,17.65
2022-11-27T04:29:26.088Z,17.02
2022-11-27T04:31:56.513Z,22.02
2022-11-27T04:34:29.669Z,19.17
2022-11-27T04:37:00.234Z,20.00
2022-11-27T04:39:31.008Z,17.85
2022-11-27T04:42:01.497Z,14.77
2022-11-27T04:44:32.132Z,16.45
2022-11-27T04:47:02.954Z,15.55
2022-11-27T04:49:36.064Z,13.27
2022-11-27T04:52:07.706Z,15.80
2022-11-27T04:54:38.286Z,14.57
2022-11-27T04:57:09.005Z,18.50
2022-11-27T04:59:39.512Z,18.05
2022-11-27T05:02:10.050Z,19.63
2022-11-27T05:04:43.240Z,19.27
2022-11-27T05:07:13.807Z,22.75
2022-11-27T05:09:44.488Z,23.77
2022-11-27T05:12:15.007Z,21.70
2022-11-27T05:14:45.506Z,22.75
2022-11-27T05:17:16.073Z,24.00
2022-11-27T05:19:49.171Z,25.67
2022-11-27T05:22:19.756Z,22.38
2022-11-27T05:24:50.340Z,16.95
2022-11-27T05:27:20.837Z,19.75
2022-11-27T05:29:51.360Z,17.55
2022-11-27T05:32:21.848Z,16.17
2022-11-27T05:34:54.923Z,18.08
2022-11-27T05:37:25.428Z,18.70
2022-11-27T05:39:55.913Z,20.20
2022-11-27T05:42:26.498Z,16.08
2022-11-27T05:44:58.677Z,14.18
2022-11-27T05:47:29.306Z,17.13
2022-11-27T05:50:03.093Z,17.02
2022-11-27T05:52:34.133Z,18.85
2022-11-27T05:55:04.892Z,14.90
2022-11-27T05:57:35.424Z,14.10
2022-11-27T06:00:06.436Z,14.25
2022-11-27T06:02:37.250Z,17.15
2022-11-27T06:05:11.953Z,15.52
2022-11-27T06:07:42.693Z,19.00
2022-11-27T06:10:14.078Z,18.27
2022-11-27T06:12:44.729Z,15.45
2022-11-27T06:15:15.247Z,19.95
2022-11-27T06:17:45.821Z,18.15
2022-11-27T06:20:20.460Z,20.13
2022-11-27T06:22:51.100Z,21.47
2022-11-27T06:25:21.782Z,22.65
2022-11-27T06:27:52.463Z,21.05
2022-11-27T06:30:22.929Z,23.55
2022-11-27T06:32:53.458Z,25.25
2022-11-27T06:35:26.674Z,21.38
2022-11-27T06:37:57.315Z,19.77
2022-11-27T06:40:28.024Z,20.88
2022-11-27T06:42:58.613Z,21.08
2022-11-27T06:45:29.164Z,24.33
2022-11-27T06:47:59.874Z,22.52
2022-11-27T06:50:32.950Z,21.88
2022-11-27T06:53:03.521Z,23.38
2022-11-27T06:55:33.998Z,20.77
2022-11-27T06:58:04.624Z,21.15
2022-11-27T07:00:35.162Z,24.23
2022-11-27T07:03:05.885Z,27.02
2022-11-27T07:05:40.164Z,29.88
2022-11-27T07:08:10.781Z,29.35
2022-11-27T07:10:41.586Z,31.83
2022-11-27T07:13:12.180Z,34.95
2022-11-27T07:15:42.741Z,27.67
2022-11-27T07:18:13.490Z,41.15
2022-11-27T07:20:46.638Z,26.63
2022-11-27T07:23:17.269Z,25.60
2022-11-27T07:25:47.843Z,31.08
2022-11-27T07:28:19.176Z,33.22
2022-11-27T07:30:57.698Z,33.08
2022-11-27T07:33:29.237Z,31.70
2022-11-27T07:36:08.110Z,27.55
2022-11-27T07:38:38.633Z,29.80
2022-11-27T07:41:10.589Z,27.77
2022-11-27T07:43:42.589Z,26.88
2022-11-27T07:46:15.834Z,26.77
2022-11-27T07:48:46.709Z,34.13
2022-11-27T07:51:22.703Z,42.17
2022-11-27T07:53:54.588Z,42.83
2022-11-27T07:56:25.457Z,44.58
2022-11-27T07:58:55.865Z,57.63
2022-11-27T08:01:26.794Z,86.68
2022-11-27T08:03:57.285Z,61.35
2022-11-27T08:06:30.694Z,54.28
2022-11-27T08:09:01.273Z,51.38
2022-11-27T08:11:35.403Z,45.25
2022-11-27T08:14:08.318Z,50.50
2022-11-27T08:16:39.100Z,46.70
2022-11-27T08:19:09.988Z,38.67
2022-11-27T08:21:43.114Z,35.58
2022-11-27T08:24:13.615Z,40.72
2022-11-27T08:26:44.240Z,38.95
2022-11-27T08:29:14.753Z,38.70
2022-11-27T08:31:45.319Z,37.85
2022-11-27T08:34:15.889Z,35.28
2022-11-27T08:36:49.088Z,34.10
2022-11-27T08:39:19.979Z,31.73
2022-11-27T08:41:50.590Z,37.65
2022-11-27T08:44:21.284Z,30.70
2022-11-27T08:46:52.031Z,26.83
2022-11-27T08:49:22.571Z,28.30
2022-11-27T08:51:55.738Z,26.48
2022-11-27T08:54:26.434Z,31.58
2022-11-27T08:56:56.980Z,33.33
2022-11-27T08:59:27.633Z,26.77
2022-11-27T09:01:58.284Z,26.55
2022-11-27T09:04:28.922Z,27.80
2022-11-27T09:07:02.165Z,30.52
2022-11-27T09:09:32.649Z,26.20
2022-11-27T09:12:03.450Z,28.63
2022-11-27T09:14:33.901Z,27.85
2022-11-27T09:17:04.620Z,30.42
2022-11-27T09:19:35.096Z,25.77
2022-11-27T09:22:08.412Z,22.75
2022-11-27T09:24:40.200Z,23.20
2022-11-27T09:27:11.114Z,18.60
2022-11-27T09:29:41.881Z,20.48
2022-11-27T09:32:12.608Z,21.80
2022-11-27T09:34:43.621Z,22.42
2022-11-27T09:37:17.082Z,25.38
2022-11-27T09:39:47.704Z,23.75
2022-11-27T09:42:31.352Z,19.23
2022-11-27T09:45:03.941Z,21.98
2022-11-27T09:47:42.002Z,21.88
2022-11-27T09:50:17.885Z,23.10
2022-11-27T09:52:54.252Z,15.93
2022-11-27T09:55:29.531Z,18.02
2022-11-27T09:58:05.798Z,17.67
2022-11-27T10:00:36.901Z,15.93
2022-11-27T10:03:11.695Z,15.00
2022-11-27T10:05:51.070Z,16.92
2022-11-27T10:08:33.245Z,18.55
2022-11-27T10:11:16.807Z,16.08
2022-11-27T10:14:02.768Z,22.73
2022-11-27T10:16:44.526Z,17.83
2022-11-27T10:19:33.678Z,17.77
2022-11-27T10:22:14.325Z,18.67
2022-11-27T10:25:03.803Z,19.85
2022-11-27T10:30:16.862Z,22.95
2022-11-27T10:32:56.887Z,30.17
2022-11-27T10:35:29.847Z,29.63
2022-11-27T10:38:07.560Z,28.83
2022-11-27T10:40:43.471Z,27.17
2022-11-27T10:43:18.665Z,20.95
2022-11-27T10:45:53.098Z,24.65
2022-11-27T10:48:24.372Z,27.30
2022-11-27T10:50:54.985Z,20.70
2022-11-27T10:53:30.309Z,17.98
2022-11-27T10:56:17.854Z,12.13
2022-11-27T10:58:53.618Z,9.75
2022-11-27T11:01:25.440Z,8.75
2022-11-27T11:04:31.665Z,8.25
2022-11-27T11:07:01.888Z,6.85
2022-11-27T11:09:37.606Z,7.68
2022-11-27T11:12:21.391Z,8.05
2022-11-27T11:14:55.986Z,8.65
2022-11-27T11:17:29.318Z,7.23
2022-11-27T11:19:59.869Z,9.07
2022-11-27T11:22:32.296Z,7.60
2022-11-27T11:25:02.857Z,12.20
2022-11-27T11:27:37.345Z,8.70
2022-11-27T11:30:10.508Z,7.85
2022-11-27T11:32:45.145Z,7.72
2022-11-27T11:35:30.336Z,7.22
2022-11-27T11:38:02.010Z,7.68
2022-11-27T11:40:34.541Z,8.75
2022-11-27T11:43:27.151Z,8.95
2022-11-27T11:45:58.067Z,9.65
2022-11-27T11:48:30.188Z,12.40
2022-11-27T11:51:05.456Z,11.23
2022-11-27T11:53:39.726Z,9.65
2022-11-27T11:56:28.087Z,9.85
2022-11-27T11:59:05.707Z,9.80
2022-11-27T12:01:54.621Z,9.38
2022-11-27T12:04:44.672Z,9.05
2022-11-27T12:07:23.815Z,10.20
2022-11-27T12:10:02.868Z,9.30
2022-11-27T12:12:51.095Z,10.02
2022-11-27T12:15:32.183Z,12.38
2022-11-27T12:18:06.432Z,12.30
2022-11-27T12:20:50.385Z,9.90
2022-11-27T12:23:49.590Z,13.15
2022-11-27T12:26:29.861Z,11.35
2022-11-27T12:29:19.214Z,12.27
2022-11-27T12:32:14.834Z,9.82
2022-11-27T12:34:57.262Z,10.27
2022-11-27T12:37:46.150Z,11.20
2022-11-27T12:40:35.642Z,12.32
2022-11-27T12:43:16.761Z,14.52
2022-11-27T12:45:51.342Z,10.52
2022-11-27T12:48:29.634Z,8.70
2022-11-27T12:51:03.698Z,9.73
2022-11-27T12:53:41.684Z,18.90
2022-11-27T12:56:18.097Z,12.18
2022-11-27T12:58:54.278Z,18.48
2022-11-27T13:01:30.129Z,10.93
2022-11-27T13:04:15.031Z,11.25
2022-11-27T13:06:53.298Z,11.70
2022-11-27T13:09:34.779Z,13.13
2022-11-27T13:12:06.775Z,14.65
2022-11-27T13:14:41.645Z,13.88
2022-11-27T13:17:18.767Z,12.68
2022-11-27T13:19:53.883Z,12.88
2022-11-27T13:22:36.452Z,12.82
2022-11-27T13:25:07.902Z,16.23
2022-11-27T13:27:44.106Z,15.00
2022-11-27T13:30:24.348Z,12.43
2022-11-27T13:32:57.588Z,12.98
2022-11-27T13:35:34.742Z,14.55
2022-11-27T13:38:13.151Z,13.13
2022-11-27T13:40:46.303Z,15.80
2022-11-27T13:43:29.146Z,15.25
2022-11-27T13:46:08.994Z,12.98
2022-11-27T13:48:43.725Z,13.30
2022-11-27T13:51:27.372Z,13.33
2022-11-27T13:54:10.007Z,13.48
2022-11-27T13:56:40.472Z,14.10
2022-11-27T13:59:19.074Z,15.07
2022-11-27T14:02:01.381Z,17.58
2022-11-27T14:04:34.069Z,15.63
2022-11-27T14:07:10.559Z,19.77
2022-11-27T14:09:44.411Z,20.40
2022-11-27T14:12:25.291Z,29.13
2022-11-27T14:15:10.207Z,30.33
2022-11-27T14:17:44.451Z,23.42
2022-11-27T14:20:28.371Z,25.10
2022-11-27T14:23:18.536Z,28.23
2022-11-27T14:25:49.115Z,16.80
2022-11-27T14:28:26.498Z,15.15
2022-11-27T14:30:59.944Z,21.63
2022-11-27T14:33:33.213Z,33.53
2022-11-27T14:36:26.524Z,36.42
2022-11-27T14:39:00.021Z,40.75
2022-11-27T14:41:32.071Z,38.95
2022-11-27T14:44:03.532Z,24.80
2022-11-27T14:46:35.528Z,24.85
2022-11-27T14:49:06.048Z,27.52
2022-11-27T14:51:39.078Z,25.13
2022-11-27T14:54:15.688Z,21.23
2022-11-27T14:56:47.368Z,21.10
2022-11-27T14:59:20.117Z,20.77
2022-11-27T15:02:02.371Z,21.50
2022-11-27T15:04:37.755Z,22.33
2022-11-27T15:07:16.516Z,21.65
2022-11-27T15:09:52.128Z,22.55
2022-11-27T15:12:26.774Z,29.02
2022-11-27T15:15:01.138Z,27.45
2022-11-27T15:17:36.690Z,28.73
2022-11-27T15:20:21.238Z,24.38
2022-11-27T15:22:53.689Z,25.20
2022-11-27T15:25:42.642Z,26.33
2022-11-27T15:28:32.276Z,27.40
2022-11-27T15:31:05.201Z,27.65
2022-11-27T15:33:37.672Z,31.00
2022-11-27T15:36:24.203Z,34.60
2022-11-27T15:39:07.422Z,34.53
2022-11-27T15:41:53.225Z,34.05
2022-11-27T15:47:00.934Z,29.48
2022-11-27T15:49:36.910Z,32.70
2022-11-27T15:52:09.861Z,28.17
2022-11-27T15:54:42.498Z,30.05
2022-11-27T15:57:21.178Z,31.33
2022-11-27T15:59:58.105Z,29.38
2022-11-27T16:02:31.395Z,31.30
2022-11-27T16:05:03.972Z,39.33
2022-11-27T16:07:38.573Z,34.95
2022-11-27T16:10:15.611Z,32.92
2022-11-27T16:12:56.177Z,32.97
2022-11-27T16:15:32.916Z,34.63
2022-11-27T16:18:08.488Z,34.22
2022-11-27T16:20:41.433Z,36.30
2022-11-27T16:23:15.323Z,36.35
2022-11-27T16:25:50.296Z,40.38
2022-11-27T16:28:28.730Z,49.22
2022-11-27T16:31:03.301Z,44.45
2022-11-27T16:33:39.912Z,56.13
2022-11-27T16:36:16.441Z,55.92
2022-11-27T16:38:50.201Z,59.33
2022-11-27T16:41:24.744Z,59.30
2022-11-27T16:44:03.882Z,53.55
2022-11-27T16:46:42.040Z,55.13
2022-11-27T16:49:16.001Z,43.15
2022-11-27T16:51:52.294Z,44.90
2022-11-27T16:54:25.131Z,45.63
2022-11-27T16:57:00.266Z,43.38
2022-11-27T16:59:39.780Z,51.70
2022-11-27T17:02:15.194Z,59.85
2022-11-27T17:04:49.490Z,42.63
2022-11-27T17:07:22.462Z,33.95
2022-11-27T17:09:55.605Z,33.42
2022-11-27T17:12:28.301Z,38.00
2022-11-27T17:15:05.043Z,32.63
2022-11-27T17:17:41.014Z,42.22
2022-11-27T17:20:14.869Z,35.03
2022-11-27T17:22:50.203Z,34.15
2022-11-27T17:25:26.699Z,36.97
2022-11-27T17:28:01.323Z,37.50
2022-11-27T17:30:39.382Z,38.00
2022-11-27T17:33:13.993Z,44.83
2022-11-27T17:35:48.636Z,41.80
2022-11-27T17:38:21.905Z,38.90
2022-11-27T17:40:55.364Z,34.20
2022-11-27T17:43:32.000Z,33.80
2022-11-27T17:46:13.577Z,35.38
2022-11-27T17:48:48.993Z,47.40
2022-11-27T17:51:23.493Z,41.72
2022-11-27T17:53:58.780Z,41.70
2022-11-27T17:56:39.612Z,48.97
2022-11-27T17:59:15.403Z,47.53
2022-11-27T18:01:57.177Z,55.08
2022-11-27T18:04:32.495Z,61.28
2022-11-27T18:09:39.397Z,55.88
2022-11-27T18:12:13.284Z,52.88
2022-11-27T18:14:48.726Z,52.78
2022-11-27T18:17:27.015Z,45.67
2022-11-27T18:20:01.906Z,49.15
2022-11-27T18:22:36.331Z,51.45
2022-11-27T18:25:10.047Z,39.08
2022-11-27T18:27:43.241Z,45.20
2022-11-27T18:30:19.056Z,44.30
2022-11-27T18:32:55.441Z,50.15
2022-11-27T18:35:32.395Z,51.30
2022-11-27T18:38:05.784Z,62.58
2022-11-27T18:40:41.757Z,56.85
2022-11-27T18:43:14.881Z,60.08
2022-11-27T18:45:54.429Z,59.83
2022-11-27T18:48:34.412Z,59.25
2022-11-27T18:51:13.178Z,59.15
2022-11-27T18:53:49.262Z,58.53
2022-11-27T18:56:29.705Z,65.68
2022-11-27T18:59:06.821Z,71.25
2022-11-27T19:01:46.012Z,66.65
2022-11-27T19:04:22.225Z,67.03
2022-11-27T19:06:57.899Z,53.70
2022-11-27T19:12:04.296Z,43.95
2022-11-27T19:14:42.029Z,56.65
2022-11-27T19:17:16.657Z,58.67
2022-11-27T19:19:54.803Z,63.78
2022-11-27T19:22:33.863Z,68.85
2022-11-27T19:25:11.909Z,66.47
2022-11-27T19:27:49.418Z,72.60
2022-11-27T19:30:23.946Z,73.72
2022-11-27T19:32:56.929Z,73.60
2022-11-27T19:35:34.199Z,70.88
2022-11-27T19:38:08.828Z,68.63
2022-11-27T19:40:46.050Z,63.25
2022-11-27T19:43:19.435Z,68.28
2022-11-27T19:45:53.995Z,60.67
2022-11-27T19:48:28.340Z,64.88
2022-11-27T19:51:10.269Z,65.65
2022-11-27T19:53:44.782Z,65.18
2022-11-27T19:56:18.484Z,64.72
2022-11-27T19:58:52.307Z,69.70
2022-11-27T20:01:27.934Z,68.28
2022-11-27T20:04:02.276Z,62.72
2022-11-27T20:06:38.301Z,69.78
2022-11-27T20:09:14.174Z,68.32
2022-11-27T20:11:51.422Z,69.70
2022-11-27T20:14:24.956Z,64.70
2022-11-27T20:17:03.293Z,68.55
2022-11-27T20:19:36.625Z,82.25
2022-11-27T20:22:13.066Z,60.13
2022-11-27T20:25:11.281Z,62.08
2022-11-27T20:27:41.829Z,56.28
2022-11-27T20:30:15.931Z,53.13
2022-11-27T20:32:51.560Z,54.80
2022-11-27T20:35:26.213Z,58.33
2022-11-27T20:38:04.234Z,65.88
2022-11-27T20:40:42.985Z,61.40
2022-11-27T20:43:16.654Z,68.63
2022-11-27T20:45:50.386Z,67.60
2022-11-27T20:48:23.562Z,68.82
2022-11-27T20:50:56.779Z,65.80
2022-11-27T20:53:33.044Z,60.35
2022-11-27T20:56:11.470Z,66.82
2022-11-27T20:58:46.173Z,63.45
2022-11-27T21:01:21.347Z,68.90
2022-11-27T21:03:55.852Z,66.28
2022-11-27T21:06:32.017Z,57.85
2022-11-27T21:09:10.164Z,63.60
2022-11-27T21:11:43.187Z,55.05
2022-11-27T21:14:16.436Z,51.70
2022-11-27T21:16:50.826Z,51.88
2022-11-27T21:19:25.587Z,54.97
2022-11-27T21:22:00.472Z,53.20
2022-11-27T21:24:35.721Z,54.95
2022-11-27T21:27:10.212Z,55.25
2022-11-27T21:29:42.008Z,63.50
2022-11-27T21:32:14.123Z,62.47
2022-11-27T21:34:45.882Z,61.38
2022-11-27T21:37:16.668Z,61.75
2022-11-27T21:39:50.177Z,62.28
2022-11-27T21:42:22.434Z,61.83
2022-11-27T21:44:54.190Z,63.80
2022-11-27T21:47:24.950Z,63.05
2022-11-27T21:49:55.659Z,64.35
2022-11-27T21:52:26.404Z,65.57
2022-11-27T21:55:07.740Z,66.55
2022-11-27T21:57:41.760Z,61.15
2022-11-27T22:00:13.202Z,64.05
2022-11-27T22:02:43.942Z,61.25
2022-11-27T22:05:15.599Z,54.33
2022-11-27T22:07:46.742Z,58.20
2022-11-27T22:10:20.124Z,56.22
2022-11-27T22:12:50.695Z,51.92
2022-11-27T22:15:21.551Z,47.13
2022-11-27T22:17:52.146Z,42.75
2022-11-27T22:20:23.723Z,46.75
2022-11-27T22:22:54.643Z,47.42
2022-11-27T22:25:29.211Z,49.13
2022-11-27T22:28:00.006Z,45.40
2022-11-27T22:30:30.984Z,45.85
2022-11-27T22:33:01.849Z,52.63
2022-11-27T22:35:32.501Z,50.42
2022-11-27T22:38:03.006Z,42.53
2022-11-27T22:40:36.470Z,41.78
2022-11-27T22:43:07.602Z,44.10
2022-11-27T22:45:47.987Z,37.35
2022-11-27T22:48:18.644Z,39.33
2022-11-27T22:50:49.291Z,37.33
2022-11-27T22:53:19.781Z,38.47
2022-11-27T22:55:53.255Z,38.90
2022-11-27T22:58:25.023Z,39.67
2022-11-27T23:00:59.101Z,37.35
2022-11-27T23:03:30.187Z,36.80
2022-11-27T23:06:01.536Z,36.45
2022-11-27T23:08:33.579Z,36.60
2022-11-27T23:11:08.544Z,34.97
2022-11-27T23:13:39.327Z,35.50
2022-11-27T23:16:11.194Z,40.00
2022-11-27T23:18:42.271Z,36.92
2022-11-27T23:21:15.265Z,38.00
2022-11-27T23:23:46.034Z,41.13
2022-11-27T23:26:21.348Z,43.25
2022-11-27T23:28:53.743Z,34.95
2022-11-27T23:31:31.124Z,39.25
2022-11-27T23:34:04.292Z,40.80
2022-11-27T23:36:36.205Z,36.22
2022-11-27T23:39:12.401Z,37.17
2022-11-27T23:41:46.520Z,35.90
2022-11-27T23:44:17.013Z,39.92
2022-11-27T23:46:48.346Z,44.15
2022-11-27T23:49:19.197Z,36.22
2022-11-27T23:51:49.843Z,36.22
2022-11-27T23:54:20.408Z,40.25
2022-11-27T23:56:54.237Z,38.78
2022-11-27T23:59:24.735Z,38.38
